createdAt,value
2022-07-25T00:02:07.382Z,97892.13
2022-07-25T00:05:12.082Z,97889.78
2022-07-25T00:08:16.705Z,97883.53
2022-07-25T00:11:19.942Z,97886.59
2022-07-25T00:14:23.188Z,97893.25
2022-07-25T00:17:26.574Z,97886.72
2022-07-25T00:20:29.840Z,97886.44
2022-07-25T00:23:34.456Z,97891.44
2022-07-25T00:26:40.214Z,97881.03
2022-07-25T00:29:44.025Z,97884.63
2022-07-25T00:32:47.262Z,97867.47
2022-07-25T00:35:50.843Z,97876.06
2022-07-25T00:38:55.452Z,97879.13
2022-07-25T00:41:58.689Z,97878.16
2022-07-25T00:45:02.017Z,97875.53
2022-07-25T00:48:07.397Z,97880.34
2022-07-25T00:51:11.728Z,97841.97
2022-07-25T00:54:16.635Z,97867.47
2022-07-25T00:57:19.831Z,97854.84
2022-07-25T01:00:23.094Z,97845.28
2022-07-25T01:03:26.279Z,97863.03
2022-07-25T01:06:29.730Z,97865.81
2022-07-25T01:09:34.635Z,97860.81
2022-07-25T01:12:56.353Z,97859.72
2022-07-25T01:15:59.799Z,97853.88
2022-07-25T01:19:03.303Z,97862.47
2022-07-25T01:22:08.240Z,97842.13
2022-07-25T01:25:12.275Z,97855.97
2022-07-25T01:28:15.748Z,97847.56
2022-07-25T01:31:19.112Z,97828.56
2022-07-25T01:34:22.426Z,97839.66
2022-07-25T01:37:27.048Z,97821.34
2022-07-25T01:40:30.324Z,97802.38
2022-07-25T01:43:33.703Z,97824.69
2022-07-25T01:46:37.078Z,97835.97
2022-07-25T01:49:41.607Z,97821.31
2022-07-25T01:52:47.629Z,97834.69
2022-07-25T01:55:50.896Z,97825.13
2022-07-25T01:58:55.529Z,97833.63
2022-07-25T02:01:59.216Z,97816.97
2022-07-25T02:05:02.692Z,97833.81
2022-07-25T02:08:07.645Z,97789.53
2022-07-25T02:11:13.587Z,97833.81
2022-07-25T02:14:16.784Z,97827.53
2022-07-25T02:17:20.215Z,97822.38
2022-07-25T02:20:23.788Z,97827.34
2022-07-25T02:23:28.495Z,97834.53
2022-07-25T02:26:31.741Z,97835.19
2022-07-25T02:29:35.096Z,97838.50
2022-07-25T02:32:38.440Z,97809.84
2022-07-25T02:35:41.844Z,97840.03
2022-07-25T02:38:46.511Z,97837.47
2022-07-25T02:41:49.698Z,97825.94
2022-07-25T02:44:53.125Z,97822.84
2022-07-25T02:47:56.330Z,97831.91
2022-07-25T02:51:00.133Z,97835.38
2022-07-25T02:54:05.353Z,97833.19
2022-07-25T02:57:08.751Z,97833.78
2022-07-25T03:00:13.538Z,97834.72
2022-07-25T03:03:16.938Z,97807.84
2022-07-25T03:06:20.860Z,97835.06
2022-07-25T03:09:25.507Z,97832.44
2022-07-25T03:12:29.029Z,97835.63
2022-07-25T03:15:32.416Z,97833.06
2022-07-25T03:18:38.791Z,97830.38
2022-07-25T03:21:42.808Z,97828.00
2022-07-25T03:24:47.572Z,97828.88
2022-07-25T03:27:51.070Z,97830.63
2022-07-25T03:34:48.983Z,97825.03
2022-07-25T03:37:52.397Z,97819.19
2022-07-25T03:40:55.784Z,97805.38
2022-07-25T03:43:59.098Z,97808.22
2022-07-25T03:47:02.632Z,97806.94
2022-07-25T03:50:08.096Z,97799.97
2022-07-25T03:53:11.774Z,97788.22
2022-07-25T03:56:15.114Z,97789.16
2022-07-25T03:59:21.050Z,97790.25
2022-07-25T04:02:24.493Z,97788.97
2022-07-25T04:05:30.100Z,97788.00
2022-07-25T04:08:33.303Z,97784.09
2022-07-25T04:11:38.277Z,97793.06
2022-07-25T04:14:41.435Z,97794.34
2022-07-25T04:17:45.184Z,97781.34
2022-07-25T04:20:50.299Z,97762.56
2022-07-25T04:23:54.524Z,97753.31
2022-07-25T04:26:57.961Z,97772.19
2022-07-25T04:30:01.214Z,97717.06
2022-07-25T04:33:05.399Z,97781.47
2022-07-25T04:36:10.843Z,97778.09
2022-07-25T04:39:14.139Z,97782.16
2022-07-25T04:42:17.729Z,97781.44
2022-07-25T04:45:20.983Z,97789.22
2022-07-25T04:48:24.398Z,97774.56
2022-07-25T04:51:29.333Z,97779.84
2022-07-25T04:54:32.573Z,97777.06
2022-07-25T04:57:35.833Z,97771.47
2022-07-25T05:00:39.184Z,97766.44
2022-07-25T05:03:50.113Z,97770.91
2022-07-25T05:06:55.576Z,97744.47
2022-07-25T05:09:58.860Z,97756.53
2022-07-25T05:13:02.003Z,97732.69
2022-07-25T05:16:05.803Z,97743.50
2022-07-25T05:19:09.682Z,97737.28
2022-07-25T05:22:16.545Z,97744.53
2022-07-25T05:25:20.043Z,97743.97
2022-07-25T05:28:23.417Z,97742.16
2022-07-25T05:31:26.961Z,97706.66
2022-07-25T05:34:30.227Z,97743.72
2022-07-25T05:37:35.059Z,97729.00
2022-07-25T05:40:41.477Z,97733.84
2022-07-25T05:43:48.763Z,97740.72
2022-07-25T05:46:52.164Z,97706.66
2022-07-25T05:49:55.696Z,97732.84
2022-07-25T05:53:00.730Z,97727.06
2022-07-25T05:56:04.496Z,97728.63
2022-07-25T05:59:07.868Z,97696.09
2022-07-25T06:02:11.339Z,97729.53
2022-07-25T06:05:14.846Z,97731.72
2022-07-25T06:08:19.395Z,97726.00
2022-07-25T06:11:27.953Z,97723.56
2022-07-25T06:14:33.967Z,97727.41
2022-07-25T06:17:37.213Z,97725.44
2022-07-25T06:20:40.458Z,97722.38
2022-07-25T06:23:45.038Z,97721.56
2022-07-25T06:26:48.802Z,97724.41
2022-07-25T06:29:52.207Z,97720.56
2022-07-25T06:32:55.774Z,97717.66
2022-07-25T06:35:59.591Z,97719.66
2022-07-25T06:39:04.574Z,97720.16
2022-07-25T06:42:08.127Z,97707.75
2022-07-25T06:45:13.104Z,97720.31
2022-07-25T06:48:17.361Z,97709.81
2022-07-25T06:51:22.871Z,97709.06
2022-07-25T06:54:27.503Z,97703.66
2022-07-25T06:57:30.938Z,97704.03
2022-07-25T07:00:34.154Z,97699.63
2022-07-25T07:03:40.186Z,97701.88
2022-07-25T07:06:43.930Z,97694.19
2022-07-25T07:09:48.556Z,97689.81
2022-07-25T07:12:51.975Z,97695.28
2022-07-25T07:15:55.901Z,97689.03
2022-07-25T07:18:59.440Z,97680.72
2022-07-25T07:22:02.776Z,97686.22
2022-07-25T07:25:09.566Z,97677.16
2022-07-25T07:28:14.125Z,97686.88
2022-07-25T07:31:18.291Z,97683.25
2022-07-25T07:34:22.193Z,97678.47
2022-07-25T07:37:25.396Z,97681.78
2022-07-25T07:40:30.558Z,97677.97
2022-07-25T07:43:33.982Z,97685.09
2022-07-25T07:46:39.461Z,97673.38
2022-07-25T07:49:44.938Z,97659.28
2022-07-25T07:52:53.097Z,97658.28
2022-07-25T07:55:56.950Z,97654.81
2022-07-25T07:59:03.534Z,97647.09
2022-07-25T08:02:07.210Z,97643.25
2022-07-25T08:05:10.764Z,97653.50
2022-07-25T08:08:15.545Z,97647.72
2022-07-25T08:11:20.303Z,97650.91
2022-07-25T08:14:23.715Z,97642.66
2022-07-25T08:17:28.797Z,97638.53
2022-07-25T08:20:39.517Z,97632.72
2022-07-25T08:23:44.977Z,97626.78
2022-07-25T08:26:49.665Z,97628.91
2022-07-25T08:29:53.011Z,97628.72
2022-07-25T08:32:58.697Z,97631.72
2022-07-25T08:36:02.008Z,97628.38
2022-07-25T08:39:05.663Z,97623.75
2022-07-25T08:42:11.238Z,97621.09
2022-07-25T08:45:16.274Z,97614.56
2022-07-25T08:48:21.960Z,97608.50
2022-07-25T08:51:25.747Z,97605.88
2022-07-25T08:54:29.199Z,97606.00
2022-07-25T08:57:35.497Z,97569.03
2022-07-25T09:00:48.830Z,97575.31
2022-07-25T09:03:52.331Z,97585.47
2022-07-25T09:06:55.548Z,97584.38
2022-07-25T09:09:58.945Z,97583.28
2022-07-25T09:13:10.977Z,97569.91
2022-07-25T09:16:14.285Z,97568.66
2022-07-25T09:19:20.670Z,97567.75
2022-07-25T09:22:24.147Z,97549.28
2022-07-25T09:25:29.835Z,97546.28
2022-07-25T09:28:42.447Z,97553.75
2022-07-25T09:34:54.105Z,97557.69
2022-07-25T09:38:08.431Z,97523.38
2022-07-25T09:41:12.211Z,97538.78
2022-07-25T09:44:18.827Z,97527.94
2022-07-25T09:47:22.112Z,97535.47
2022-07-25T09:50:28.601Z,97540.72
2022-07-25T09:53:31.975Z,97537.09
2022-07-25T09:56:35.841Z,97523.34
2022-07-25T09:59:39.550Z,97513.66
2022-07-25T10:02:49.641Z,97487.22
2022-07-25T10:06:09.419Z,97502.84
2022-07-25T10:09:13.823Z,97514.47
2022-07-25T10:12:21.139Z,97478.28
2022-07-25T10:15:24.455Z,97517.13
2022-07-25T10:18:29.798Z,97500.78
2022-07-25T10:21:34.535Z,97506.50
2022-07-25T10:24:39.527Z,97501.78
2022-07-25T10:27:48.729Z,97495.06
2022-07-25T10:31:01.276Z,97495.88
2022-07-25T10:34:07.417Z,97492.16
2022-07-25T10:37:15.096Z,97481.09
2022-07-25T10:40:34.726Z,97480.59
2022-07-25T10:43:39.777Z,97469.38
2022-07-25T10:46:45.181Z,97466.78
2022-07-25T10:50:14.485Z,97467.84
2022-07-25T10:53:14.206Z,97465.75
2022-07-25T10:56:20.459Z,97457.22
2022-07-25T10:59:32.604Z,97451.88
2022-07-25T11:02:36.035Z,97460.47
2022-07-25T11:05:46.487Z,97463.31
2022-07-25T11:08:51.137Z,97450.50
2022-07-25T11:11:56.241Z,97455.03
2022-07-25T11:15:02.890Z,97453.28
2022-07-25T11:18:06.517Z,97440.50
2022-07-25T11:21:10.661Z,97438.19
2022-07-25T11:24:15.598Z,97445.13
2022-07-25T11:27:24.150Z,97432.34
2022-07-25T11:30:29.060Z,97408.91
2022-07-25T11:33:32.544Z,97434.47
2022-07-25T11:36:37.861Z,97418.44
2022-07-25T11:39:44.316Z,97424.09
2022-07-25T11:42:49.803Z,97418.31
2022-07-25T11:46:01.341Z,97418.69
2022-07-25T11:49:08.523Z,97405.13
2022-07-25T11:52:20.391Z,97404.44
2022-07-25T11:55:30.613Z,97396.34
2022-07-25T11:58:33.840Z,97394.88
2022-07-25T12:01:38.738Z,97379.16
2022-07-25T12:04:42.034Z,97388.25
2022-07-25T12:07:46.786Z,97383.00
2022-07-25T12:10:52.170Z,97380.56
2022-07-25T12:14:05.480Z,97374.63
2022-07-25T12:17:08.829Z,97380.28
2022-07-25T12:20:15.658Z,97364.78
2022-07-25T12:23:21.645Z,97352.25
2022-07-25T12:26:26.599Z,97352.91
2022-07-25T12:29:30.196Z,97360.25
2022-07-25T12:32:33.435Z,97356.19
2022-07-25T12:35:37.780Z,97359.28
2022-07-25T12:38:41.215Z,97350.19
2022-07-25T12:41:45.770Z,97354.53
2022-07-25T12:44:49.254Z,97351.84
2022-07-25T12:47:52.373Z,97336.59
2022-07-25T12:50:56.053Z,97342.75
2022-07-25T12:53:59.566Z,97337.72
2022-07-25T12:57:04.273Z,97339.50
2022-07-25T13:00:11.059Z,97327.56
2022-07-25T13:03:15.062Z,97329.38
2022-07-25T13:06:20.748Z,97331.34
2022-07-25T13:09:24.052Z,97319.22
2022-07-25T13:12:28.741Z,97313.28
2022-07-25T13:15:32.310Z,97312.03
2022-07-25T13:18:35.606Z,97317.41
2022-07-25T13:21:39.116Z,97308.88
2022-07-25T13:24:42.421Z,97295.19
2022-07-25T13:27:49.517Z,97323.78
2022-07-25T13:30:52.936Z,97317.31
2022-07-25T13:33:56.500Z,97322.25
2022-07-25T13:36:59.734Z,97319.16
2022-07-25T13:40:03.312Z,97318.16
2022-07-25T13:43:08.050Z,97316.19
2022-07-25T13:46:14.649Z,97331.84
2022-07-25T13:49:18.268Z,97302.00
2022-07-25T13:52:21.686Z,97310.50
2022-07-25T13:55:25.092Z,97309.09
2022-07-25T13:58:29.924Z,97317.19
2022-07-25T14:01:33.658Z,97324.34
2022-07-25T14:04:37.059Z,97311.44
2022-07-25T14:07:40.668Z,97304.63
2022-07-25T14:10:43.937Z,97319.94
2022-07-25T14:13:48.899Z,97306.56
2022-07-25T14:16:53.073Z,97301.25
2022-07-25T14:19:56.458Z,97307.91
2022-07-25T14:22:59.724Z,97312.84
2022-07-25T14:26:03.220Z,97297.38
2022-07-25T14:29:11.165Z,97296.09
2022-07-25T14:32:16.458Z,97291.59
2022-07-25T14:35:20.739Z,97268.53
2022-07-25T14:38:37.896Z,97263.16
2022-07-25T14:41:41.203Z,97285.41
2022-07-25T14:44:45.775Z,97285.97
2022-07-25T14:47:49.598Z,97237.06
2022-07-25T14:50:52.902Z,97270.81
2022-07-25T14:53:56.247Z,97272.31
2022-07-25T14:56:59.518Z,97274.44
2022-07-25T15:00:05.683Z,97268.72
2022-07-25T15:03:09.540Z,97266.72
2022-07-25T15:06:13.051Z,97267.22
2022-07-25T15:09:19.062Z,97238.63
2022-07-25T15:12:22.343Z,97267.44
2022-07-25T15:15:26.972Z,97264.44
2022-07-25T15:18:30.746Z,97254.84
2022-07-25T15:21:34.327Z,97265.94
2022-07-25T15:25:06.392Z,97249.19
2022-07-25T15:28:30.593Z,97249.97
2022-07-25T15:34:52.939Z,97254.28
2022-07-25T15:37:56.187Z,97249.00
2022-07-25T15:40:59.932Z,97258.13
2022-07-25T15:44:03.365Z,97236.63
2022-07-25T15:47:08.061Z,97248.00
2022-07-25T15:50:12.938Z,97244.50
2022-07-25T15:53:17.083Z,97258.34
2022-07-25T15:56:20.270Z,97261.97
2022-07-25T15:59:23.562Z,97258.47
2022-07-25T16:02:26.848Z,97256.50
2022-07-25T16:05:31.920Z,97271.81
2022-07-25T16:08:36.207Z,97259.75
2022-07-25T16:11:40.037Z,97254.72
2022-07-25T16:14:44.252Z,97268.13
2022-07-25T16:17:47.763Z,97259.69
2022-07-25T16:20:52.460Z,97259.03
2022-07-25T16:24:03.704Z,97253.75
2022-07-25T16:27:08.172Z,97234.16
2022-07-25T16:30:13.123Z,97260.97
2022-07-25T16:33:17.138Z,97267.09
2022-07-25T16:36:23.872Z,97247.25
2022-07-25T16:39:29.821Z,97199.97
2022-07-25T16:42:33.096Z,97265.88
2022-07-25T16:45:37.420Z,97267.19
2022-07-25T16:48:40.972Z,97266.56
2022-07-25T16:51:46.580Z,97265.09
2022-07-25T16:54:49.859Z,97253.38
2022-07-25T16:57:53.735Z,97266.09
2022-07-25T17:00:57.358Z,97266.91
2022-07-25T17:04:01.958Z,97260.50
2022-07-25T17:07:07.849Z,97259.94
2022-07-25T17:10:11.672Z,97255.06
2022-07-25T17:13:15.301Z,97251.25
2022-07-25T17:16:18.714Z,97246.66
2022-07-25T17:19:28.644Z,97252.72
2022-07-25T17:22:36.120Z,97253.75
2022-07-25T17:25:45.158Z,97244.38
2022-07-25T17:28:50.755Z,97255.66
2022-07-25T17:31:54.132Z,97255.69
2022-07-25T17:34:57.330Z,97244.53
2022-07-25T17:38:02.533Z,97248.38
2022-07-25T17:41:11.315Z,97260.72
2022-07-25T17:44:14.966Z,97266.91
2022-07-25T17:47:18.999Z,97261.47
2022-07-25T17:50:28.625Z,97268.03
2022-07-25T17:53:33.737Z,97265.28
2022-07-25T17:56:37.373Z,97215.66
2022-07-25T17:59:40.824Z,97277.00
2022-07-25T18:02:44.181Z,97280.00
2022-07-25T18:05:47.674Z,97268.84
2022-07-25T18:08:52.795Z,97273.97
2022-07-25T18:12:00.015Z,97277.63
2022-07-25T18:15:03.667Z,97274.34
2022-07-25T18:18:10.384Z,97266.78
2022-07-25T18:21:14.730Z,97273.75
2022-07-25T18:24:19.752Z,97272.66
2022-07-25T18:27:23.011Z,97282.28
2022-07-25T18:30:29.461Z,97282.53
2022-07-25T18:33:32.747Z,97285.78
2022-07-25T18:36:36.114Z,97286.88
2022-07-25T18:39:40.938Z,97282.41
2022-07-25T18:42:44.582Z,97286.84
2022-07-25T18:45:48.482Z,97294.00
2022-07-25T18:48:51.898Z,97295.78
2022-07-25T18:51:56.112Z,97296.25
2022-07-25T18:55:00.646Z,97293.78
2022-07-25T18:58:04.115Z,97292.53
2022-07-25T19:01:09.221Z,97290.53
2022-07-25T19:04:13.136Z,97296.69
2022-07-25T19:07:16.373Z,97292.28
2022-07-25T19:10:20.944Z,97287.78
2022-07-25T19:13:47.588Z,97287.31
2022-07-25T19:16:47.696Z,97287.41
2022-07-25T19:19:51.583Z,97294.88
2022-07-25T19:22:54.783Z,97291.38
2022-07-25T19:25:59.642Z,97284.69
2022-07-25T19:29:02.977Z,97303.19
2022-07-25T19:32:07.190Z,97297.47
2022-07-25T19:35:12.038Z,97313.91
2022-07-25T19:38:15.862Z,97319.63
2022-07-25T19:41:20.625Z,97322.91
2022-07-25T19:44:23.880Z,97334.41
2022-07-25T19:47:27.475Z,97334.63
2022-07-25T19:50:30.720Z,97347.75
2022-07-25T19:53:34.026Z,97329.53
2022-07-25T19:56:38.655Z,97349.19
2022-07-25T19:59:41.936Z,97360.22
2022-07-25T20:02:45.279Z,97373.72
2022-07-25T20:05:48.770Z,97381.50
2022-07-25T20:08:52.257Z,97394.25
2022-07-25T20:11:57.514Z,97411.31
2022-07-25T20:15:00.895Z,97418.47
2022-07-25T20:18:04.630Z,97425.44
2022-07-25T20:21:08.930Z,97434.06
2022-07-25T20:24:18.043Z,97434.19
2022-07-25T20:27:25.681Z,97436.06
2022-07-25T20:30:34.650Z,97448.69
2022-07-25T20:33:38.742Z,97436.72
2022-07-25T20:36:42.049Z,97448.56
2022-07-25T20:39:45.778Z,97448.09
2022-07-25T20:42:52.961Z,97448.72
2022-07-25T20:45:59.405Z,97449.25
2022-07-25T20:49:02.877Z,97454.88
2022-07-25T20:52:07.872Z,97458.41
2022-07-25T20:55:11.224Z,97459.53
2022-07-25T20:58:15.826Z,97467.44
2022-07-25T21:01:19.461Z,97455.94
2022-07-25T21:04:22.717Z,97460.50
2022-07-25T21:07:26.196Z,97463.19
2022-07-25T21:10:29.453Z,97469.78
2022-07-25T21:13:34.231Z,97475.28
2022-07-25T21:16:37.731Z,97482.69
2022-07-25T21:19:41.114Z,97482.56
2022-07-25T21:22:45.076Z,97477.03
2022-07-25T21:25:48.814Z,97491.78
2022-07-25T21:28:53.634Z,97488.09
2022-07-25T21:34:49.845Z,97498.69
2022-07-25T21:37:53.117Z,97483.00
2022-07-25T21:40:56.530Z,97518.78
2022-07-25T21:44:00.127Z,97521.06
2022-07-25T21:47:03.398Z,97528.50
2022-07-25T21:50:26.974Z,97518.00
2022-07-25T21:53:31.779Z,97538.28
2022-07-25T21:56:35.089Z,97528.31
2022-07-25T21:59:38.474Z,97537.66
2022-07-25T22:02:43.349Z,97542.66
2022-07-25T22:05:48.101Z,97558.16
2022-07-25T22:08:51.575Z,97542.34
2022-07-25T22:11:55.706Z,97586.28
2022-07-25T22:14:59.225Z,97593.69
2022-07-25T22:18:02.447Z,97603.13
2022-07-25T22:21:07.105Z,97581.81
2022-07-25T22:24:11.564Z,97588.09
2022-07-25T22:27:15.213Z,97616.69
2022-07-25T22:30:19.726Z,97606.31
2022-07-25T22:33:22.982Z,97625.47
2022-07-25T22:36:27.671Z,97623.25
2022-07-25T22:39:30.966Z,97634.25
2022-07-25T22:42:34.306Z,97644.19
2022-07-25T22:45:42.603Z,97648.03
2022-07-25T22:48:46.309Z,97647.09
2022-07-25T22:51:51.017Z,97656.53
2022-07-25T22:54:54.319Z,97672.72
2022-07-25T22:57:57.636Z,97680.03
2022-07-25T23:01:00.883Z,97672.97
2022-07-25T23:04:04.868Z,97647.13
2022-07-25T23:07:09.648Z,97683.22
2022-07-25T23:10:13.165Z,97695.94
2022-07-25T23:13:16.411Z,97705.88
2022-07-25T23:16:20.235Z,97708.53
2022-07-25T23:19:23.793Z,97714.03
2022-07-25T23:22:30.208Z,97721.75
2022-07-25T23:25:33.548Z,97702.72
2022-07-25T23:28:36.760Z,97716.13
2022-07-25T23:31:40.216Z,97719.94
2022-07-25T23:34:43.495Z,97719.94
2022-07-25T23:37:48.121Z,97724.84
2022-07-25T23:40:54.021Z,97705.69
2022-07-25T23:43:59.465Z,97715.63
2022-07-25T23:47:03.346Z,97725.06
2022-07-25T23:50:09.544Z,97731.28
2022-07-25T23:53:14.653Z,97737.22
2022-07-25T23:56:21.103Z,97723.16
2022-07-25T23:59:24.652Z,97736.25
